Time;durP1;ratioP1;P1;durP2;ratioP2;P2;SDS_P1;SDS_P2;PMS_P1;PMS_P2;Temp;Humidity;BMP_temperature;BMP_pressure;BME280_temperature;BME280_humidity;BME280_pressure;Samples;Min_cycle;Max_cycle;Signal;HPM_P1;HPM_P2
2023/12/27 06:32:06;;;;;;;20.10;4.90;;;3.80;99.90;;;;;;5961335;23;20189;-54
2023/12/27 06:34:31;;;;;;;18.20;4.30;;;3.90;99.90;;;;;;4959919;28;20336;-52
2023/12/27 06:36:57;;;;;;;16.73;4.70;;;3.80;99.90;;;;;;4955376;28;20265;-54
2023/12/27 06:39:22;;;;;;;25.33;10.30;;;3.90;99.90;;;;;;4963180;28;20282;-54
2023/12/27 06:41:48;;;;;;;13.60;4.90;;;3.90;99.90;;;;;;4958882;28;20673;-53
2023/12/27 06:44:14;;;;;;;22.13;7.17;;;3.90;99.90;;;;;;4955271;28;20649;-52
2023/12/27 06:46:39;;;;;;;16.63;5.10;;;3.90;99.90;;;;;;4955200;28;20262;-56
2023/12/27 06:49:05;;;;;;;12.23;5.10;;;3.90;99.90;;;;;;4955263;28;20257;-57
2023/12/27 06:51:30;;;;;;;17.60;4.60;;;4.00;99.90;;;;;;4946788;28;20670;-53
2023/12/27 06:53:56;;;;;;;11.67;4.40;;;3.90;99.90;;;;;;4947039;28;20305;-53
2023/12/27 06:56:22;;;;;;;17.33;4.50;;;3.90;99.90;;;;;;4946205;28;20273;-53
2023/12/27 06:58:48;;;;;;;13.63;4.70;;;3.90;99.90;;;;;;4943992;29;20279;-54
2023/12/27 07:01:16;;;;;;;11.23;4.10;;;3.90;99.90;;;;;;4943989;29;20297;-54
2023/12/27 07:03:42;;;;;;;20.77;9.10;;;3.90;99.90;;;;;;4946342;29;20214;-57
2023/12/27 07:06:08;;;;;;;22.00;7.60;;;3.90;99.90;;;;;;4947205;28;20195;-53
2023/12/27 07:08:34;;;;;;;33.33;9.50;;;3.90;99.90;;;;;;4938782;28;20227;-52
2023/12/27 07:10:59;;;;;;;27.30;8.40;;;3.90;99.90;;;;;;4954893;28;20200;-51
2023/12/27 07:13:25;;;;;;;27.60;5.67;;;4.00;99.90;;;;;;4952663;28;20342;-52
2023/12/27 07:15:51;;;;;;;14.97;4.70;;;4.00;99.90;;;;;;4948155;29;20190;-52
2023/12/27 07:18:16;;;;;;;15.83;4.80;;;4.00;99.90;;;;;;4946765;28;20201;-51
2023/12/27 07:20:42;;;;;;;13.43;4.70;;;4.00;99.90;;;;;;4954604;28;20198;-52
2023/12/27 07:23:07;;;;;;;14.47;5.07;;;3.90;99.90;;;;;;4939301;28;20207;-53
2023/12/27 07:25:33;;;;;;;11.70;4.43;;;3.90;99.90;;;;;;4951488;29;20195;-52
2023/12/27 07:27:58;;;;;;;12.20;4.43;;;3.90;99.90;;;;;;4948999;29;20190;-53
2023/12/27 07:30:24;;;;;;;16.83;4.67;;;3.90;99.90;;;;;;4946591;28;20191;-52
2023/12/27 07:32:49;;;;;;;12.97;4.93;;;3.90;99.90;;;;;;4953602;28;20316;-52
2023/12/27 07:35:15;;;;;;;20.60;4.70;;;3.80;99.90;;;;;;4954662;28;20201;-53
2023/12/27 07:37:42;;;;;;;24.20;4.77;;;3.90;99.90;;;;;;4946601;29;20622;-52
2023/12/27 07:40:09;;;;;;;11.30;4.43;;;3.90;99.90;;;;;;4954600;28;20564;-52
2023/12/27 07:42:35;;;;;;;25.13;5.30;;;3.90;99.90;;;;;;4953453;28;20238;-55
2023/12/27 07:45:00;;;;;;;21.70;7.40;;;3.90;99.90;;;;;;4953058;29;20202;-53
2023/12/27 07:47:26;;;;;;;25.93;8.37;;;3.90;99.90;;;;;;4946099;28;20756;-52
2023/12/27 07:49:51;;;;;;;17.80;5.47;;;3.90;99.90;;;;;;4954309;28;20196;-52
2023/12/27 07:52:17;;;;;;;15.70;5.50;;;3.90;99.90;;;;;;4945499;28;20211;-53
2023/12/27 07:54:43;;;;;;;17.10;6.53;;;3.80;99.90;;;;;;4954178;28;20250;-51
2023/12/27 07:57:08;;;;;;;16.67;6.63;;;3.80;99.90;;;;;;4938616;28;20201;-52
2023/12/27 07:59:34;;;;;;;28.73;10.43;;;3.90;99.90;;;;;;4952165;29;20290;-52
2023/12/27 08:02:00;;;;;;;21.30;7.57;;;3.90;99.90;;;;;;4952428;28;20771;-54
2023/12/27 08:04:26;;;;;;;16.10;4.90;;;4.00;99.90;;;;;;4945168;28;20197;-53
2023/12/27 08:06:52;;;;;;;25.10;6.63;;;4.00;99.90;;;;;;4953111;28;20194;-53
2023/12/27 08:09:18;;;;;;;14.60;5.77;;;4.00;99.90;;;;;;4944956;28;20229;-51
2023/12/27 08:11:43;;;;;;;15.27;5.30;;;4.00;99.90;;;;;;4948728;28;20266;-52
2023/12/27 08:14:09;;;;;;;18.57;5.10;;;4.10;99.90;;;;;;4948735;29;20206;-52
2023/12/27 08:16:34;;;;;;;14.30;4.67;;;4.10;99.90;;;;;;4950555;28;20182;-53
2023/12/27 08:19:00;;;;;;;19.33;4.93;;;4.20;99.90;;;;;;4939998;29;20217;-52
2023/12/27 08:21:26;;;;;;;16.97;4.90;;;4.30;99.90;;;;;;4942370;28;20202;-53
2023/12/27 08:23:53;;;;;;;14.47;5.00;;;4.20;99.90;;;;;;4941580;29;20613;-51
2023/12/27 08:26:19;;;;;;;16.97;4.90;;;4.30;99.90;;;;;;4942028;29;20187;-52
2023/12/27 08:28:45;;;;;;;15.47;6.27;;;4.30;99.90;;;;;;4952976;28;20194;-51
2023/12/27 08:31:13;;;;;;;12.30;4.63;;;4.20;99.90;;;;;;4950583;28;20194;-53
2023/12/27 08:33:39;;;;;;;14.80;5.60;;;4.30;99.90;;;;;;4943226;28;20264;-52
2023/12/27 08:36:05;;;;;;;16.70;6.27;;;4.40;99.90;;;;;;4953002;28;20194;-53
2023/12/27 08:38:32;;;;;;;18.90;4.83;;;4.50;99.90;;;;;;4952662;28;20202;-57
2023/12/27 08:40:58;;;;;;;13.73;4.63;;;4.60;99.90;;;;;;4947308;28;20194;-53
2023/12/27 08:43:29;;;;;;;14.83;5.63;;;4.60;99.90;;;;;;4948561;28;20242;-53
2023/12/27 08:45:55;;;;;;;16.23;5.77;;;4.70;99.90;;;;;;4938762;29;20186;-55
2023/12/27 08:48:20;;;;;;;16.93;5.70;;;4.50;99.90;;;;;;4944543;28;20625;-53
2023/12/27 08:50:46;;;;;;;14.47;5.00;;;4.50;99.90;;;;;;4952464;28;20265;-54
2023/12/27 08:53:12;;;;;;;16.27;5.87;;;4.50;99.90;;;;;;4951890;28;20673;-57
2023/12/27 08:55:38;;;;;;;17.40;6.93;;;4.50;99.90;;;;;;4941715;28;20190;-53
2023/12/27 08:58:04;;;;;;;15.50;6.33;;;4.60;99.90;;;;;;4947269;29;20653;-55
2023/12/27 09:00:30;;;;;;;17.27;5.90;;;4.60;99.90;;;;;;4952422;28;20194;-54
2023/12/27 09:02:55;;;;;;;24.07;6.30;;;4.60;99.90;;;;;;4943686;28;20229;-54
2023/12/27 09:05:21;;;;;;;12.43;5.43;;;4.60;99.90;;;;;;4944098;28;20425;-57
2023/12/27 09:07:47;;;;;;;12.00;5.13;;;4.70;99.90;;;;;;4940607;28;20187;-53
2023/12/27 09:10:12;;;;;;;19.13;6.17;;;4.70;99.90;;;;;;4940542;29;20191;-52
2023/12/27 09:12:41;;;;;;;18.43;5.70;;;4.80;99.90;;;;;;4943360;28;20217;-56
2023/12/27 09:15:07;;;;;;;15.73;5.47;;;4.90;99.90;;;;;;4947957;28;20534;-53
2023/12/27 09:17:34;;;;;;;23.50;7.57;;;4.80;99.90;;;;;;4943081;29;20197;-54
2023/12/27 09:19:59;;;;;;;18.47;7.87;;;4.90;99.90;;;;;;4938556;28;20601;-52
2023/12/27 09:22:25;;;;;;;17.73;8.20;;;5.00;99.90;;;;;;4947907;28;20230;-52
2023/12/27 09:24:50;;;;;;;20.90;8.83;;;5.00;99.90;;;;;;4945265;29;20554;-52
2023/12/27 09:27:17;;;;;;;27.13;9.73;;;5.00;99.90;;;;;;4943940;28;20206;-52
2023/12/27 09:29:44;;;;;;;18.80;8.27;;;5.10;99.90;;;;;;4948747;28;20266;-55
2023/12/27 09:32:10;;;;;;;20.23;8.03;;;5.10;99.90;;;;;;4946085;28;20873;-56
2023/12/27 09:34:35;;;;;;;26.23;9.10;;;5.10;99.90;;;;;;4941318;28;20265;-54
2023/12/27 09:37:03;;;;;;;19.97;8.00;;;5.10;99.90;;;;;;4946407;29;20195;-49
2023/12/27 09:39:29;;;;;;;19.00;7.13;;;5.10;99.90;;;;;;4951138;28;20197;-51
2023/12/27 09:41:55;;;;;;;17.97;6.83;;;5.00;99.90;;;;;;4950721;28;20218;-54
2023/12/27 09:44:21;;;;;;;27.30;9.03;;;5.00;99.90;;;;;;4951001;28;20278;-54
2023/12/27 09:46:47;;;;;;;16.13;6.87;;;5.10;99.90;;;;;;4944686;29;20265;-51
2023/12/27 09:49:12;;;;;;;18.43;5.80;;;5.10;99.90;;;;;;4951667;28;20645;-53
2023/12/27 09:51:39;;;;;;;16.97;6.10;;;5.10;99.90;;;;;;4950025;28;20256;-52
2023/12/27 09:54:05;;;;;;;21.23;8.00;;;5.10;99.90;;;;;;4951532;28;20584;-55
2023/12/27 09:56:31;;;;;;;17.17;6.90;;;5.10;99.90;;;;;;4951520;28;20200;-54
2023/12/27 09:59:04;;;;;;;16.43;6.73;;;5.10;99.90;;;;;;4951739;28;20239;-55
2023/12/27 10:01:33;;;;;;;23.07;6.83;;;5.20;99.90;;;;;;4951169;28;20632;-55
2023/12/27 10:04:17;;;;;;;14.57;6.10;;;5.30;99.90;;;;;;4945962;28;20654;-55
2023/12/27 10:06:43;;;;;;;15.57;6.53;;;5.30;99.90;;;;;;4940183;29;20265;-55
2023/12/27 10:09:10;;;;;;;20.27;9.30;;;5.40;99.90;;;;;;4940385;29;20191;-54
2023/12/27 10:11:38;;;;;;;17.80;7.30;;;5.40;99.90;;;;;;4934075;29;20544;-57
2023/12/27 10:14:04;;;;;;;34.07;11.43;;;5.50;99.90;;;;;;4945382;28;20207;-53
2023/12/27 10:16:30;;;;;;;21.67;9.00;;;5.60;99.90;;;;;;4941878;29;20230;-53
2023/12/27 10:18:57;;;;;;;22.07;8.37;;;5.60;99.90;;;;;;4946925;28;20214;-53
2023/12/27 10:21:22;;;;;;;22.07;8.80;;;5.60;99.90;;;;;;4947643;29;20248;-53
2023/12/27 10:23:48;;;;;;;21.77;9.40;;;5.60;99.90;;;;;;4943467;29;20230;-52
2023/12/27 10:26:14;;;;;;;17.73;7.47;;;5.60;99.90;;;;;;4943708;28;20200;-53
2023/12/27 10:28:39;;;;;;;21.40;8.10;;;5.70;99.90;;;;;;4935609;28;20210;-53
2023/12/27 10:31:05;;;;;;;15.67;7.07;;;5.70;99.90;;;;;;4943410;28;20186;-54
2023/12/27 10:33:42;;;;;;;22.87;9.30;;;5.80;99.90;;;;;;4947252;28;20222;-53
2023/12/27 10:36:09;;;;;;;19.97;8.47;;;5.90;99.90;;;;;;4946755;29;20554;-54
2023/12/27 10:38:35;;;;;;;21.07;7.83;;;6.00;99.90;;;;;;4951358;28;20220;-52
2023/12/27 10:41:04;;;;;;;18.50;8.67;;;6.00;99.90;;;;;;4951208;28;20684;-53
2023/12/27 10:43:31;;;;;;;18.40;8.27;;;6.00;99.90;;;;;;4950410;28;20242;-53
2023/12/27 10:45:58;;;;;;;22.03;9.10;;;6.00;99.90;;;;;;4946613;28;20269;-50
2023/12/27 10:48:28;;;;;;;20.90;8.60;;;6.00;99.90;;;;;;4953313;29;20657;-54
2023/12/27 10:50:53;;;;;;;22.57;8.57;;;6.10;99.90;;;;;;4947283;28;20692;-51
2023/12/27 10:53:20;;;;;;;26.27;9.83;;;6.10;99.90;;;;;;4945956;28;20282;-52
2023/12/27 10:55:48;;;;;;;22.77;9.63;;;6.20;99.90;;;;;;4946846;28;20613;-52
2023/12/27 10:58:19;;;;;;;20.63;8.33;;;6.30;99.90;;;;;;4946752;28;20224;-51
2023/12/27 11:00:46;;;;;;;21.23;8.63;;;6.30;99.90;;;;;;4939003;29;20187;-53
2023/12/27 11:03:12;;;;;;;23.90;8.23;;;6.30;99.90;;;;;;4938667;28;20234;-52
2023/12/27 11:05:40;;;;;;;26.10;8.47;;;6.40;99.90;;;;;;4951085;29;20540;-55
2023/12/27 11:08:06;;;;;;;21.40;7.30;;;6.40;99.90;;;;;;4943280;29;20649;-56
2023/12/27 11:10:37;;;;;;;19.70;7.73;;;6.50;99.90;;;;;;4951644;29;20504;-52
2023/12/27 11:13:04;;;;;;;22.27;7.67;;;6.60;99.90;;;;;;4945766;28;20705;-53
2023/12/27 11:15:31;;;;;;;15.23;7.40;;;6.60;99.90;;;;;;4954023;28;20253;-52
2023/12/27 11:18:00;;;;;;;21.50;8.30;;;6.60;99.90;;;;;;4954242;28;20199;-56
2023/12/27 11:20:25;;;;;;;19.07;6.43;;;6.60;99.90;;;;;;4951742;28;20195;-57
2023/12/27 11:22:51;;;;;;;23.27;7.60;;;6.60;99.90;;;;;;4933397;29;20222;-53
2023/12/27 11:25:17;;;;;;;17.53;7.97;;;6.60;99.90;;;;;;4935217;29;20198;-52
2023/12/27 11:27:42;;;;;;;21.20;8.67;;;6.60;99.90;;;;;;4950613;29;20659;-53
2023/12/27 11:30:11;;;;;;;26.47;9.53;;;6.70;99.90;;;;;;4947848;29;20190;-51
2023/12/27 11:32:41;;;;;;;22.70;9.00;;;6.60;99.90;;;;;;4953183;28;20266;-55
2023/12/27 11:35:28;;;;;;;24.60;8.67;;;6.60;99.90;;;;;;4953871;28;20194;-52
2023/12/27 11:38:18;;;;;;;20.80;8.47;;;6.60;99.90;;;;;;4939108;29;20198;-52
2023/12/27 11:40:47;;;;;;;27.10;8.37;;;6.60;99.90;;;;;;4950344;28;20685;-55
2023/12/27 11:43:20;;;;;;;23.77;8.73;;;6.60;99.90;;;;;;4948961;28;20296;-51
2023/12/27 11:46:02;;;;;;;26.10;8.77;;;6.70;99.90;;;;;;4945855;28;20681;-52
2023/12/27 11:48:38;;;;;;;32.60;10.07;;;6.60;99.90;;;;;;4937852;28;20233;-53
2023/12/27 11:51:36;;;;;;;21.83;8.70;;;6.60;99.90;;;;;;4952256;28;20798;-52
2023/12/27 11:54:03;;;;;;;32.87;10.87;;;6.70;99.90;;;;;;4954012;28;20285;-51
2023/12/27 11:56:34;;;;;;;26.00;10.27;;;6.80;99.90;;;;;;4952023;28;20201;-52
2023/12/27 11:59:01;;;;;;;29.90;11.13;;;6.80;99.90;;;;;;4939800;29;20186;-51
2023/12/27 12:01:31;;;;;;;28.37;11.30;;;6.80;99.90;;;;;;4942365;28;20233;-51
2023/12/27 12:04:22;;;;;;;29.07;12.13;;;6.90;99.90;;;;;;4945670;28;20260;-54
2023/12/27 12:07:15;;;;;;;33.27;13.63;;;6.90;99.90;;;;;;4943552;28;20238;-51
2023/12/27 12:09:45;;;;;;;26.97;10.70;;;6.90;99.90;;;;;;4951032;28;20190;-52
2023/12/27 12:12:22;;;;;;;30.33;10.57;;;6.80;99.90;;;;;;4939819;29;20631;-55
2023/12/27 12:14:55;;;;;;;29.30;10.80;;;6.90;99.90;;;;;;4942062;29;20187;-50
2023/12/27 12:17:21;;;;;;;22.67;9.43;;;6.90;99.90;;;;;;4941964;29;20563;-52
2023/12/27 12:19:51;;;;;;;21.77;8.60;;;6.90;99.90;;;;;;4945154;28;20200;-53
2023/12/27 12:22:17;;;;;;;28.03;9.20;;;6.90;99.90;;;;;;4948644;28;20222;-53
2023/12/27 12:24:44;;;;;;;21.17;9.07;;;7.00;99.90;;;;;;4945073;29;20187;-57
2023/12/27 12:27:13;;;;;;;25.97;10.23;;;7.00;99.90;;;;;;4941833;29;20186;-52
2023/12/27 12:29:40;;;;;;;22.23;9.67;;;6.90;99.90;;;;;;4944396;29;20199;-53
2023/12/27 12:32:06;;;;;;;25.50;10.60;;;6.90;99.90;;;;;;4952170;28;20689;-59
2023/12/27 12:34:31;;;;;;;28.93;10.60;;;6.90;99.90;;;;;;4950981;28;20240;-60
2023/12/27 12:36:58;;;;;;;25.20;10.33;;;7.00;99.90;;;;;;4934191;29;20187;-56
2023/12/27 12:39:27;;;;;;;25.40;10.27;;;6.90;99.90;;;;;;4949081;29;20672;-55
2023/12/27 12:41:53;;;;;;;27.07;11.70;;;7.00;99.90;;;;;;4940803;29;20213;-63
2023/12/27 12:44:19;;;;;;;29.63;11.53;;;7.00;99.90;;;;;;4949161;29;20265;-56
2023/12/27 12:46:45;;;;;;;21.30;9.83;;;7.00;99.90;;;;;;4953133;28;20665;-52
2023/12/27 12:49:12;;;;;;;26.37;10.00;;;7.10;99.90;;;;;;4952635;28;20546;-55
2023/12/27 12:51:37;;;;;;;21.00;10.13;;;7.20;99.90;;;;;;4951763;28;20229;-55
2023/12/27 12:54:04;;;;;;;24.47;10.93;;;7.30;99.90;;;;;;4952523;28;20237;-55
2023/12/27 12:56:30;;;;;;;23.67;8.93;;;7.40;99.90;;;;;;4943107;28;20219;-55
2023/12/27 12:58:57;;;;;;;20.53;8.53;;;7.60;99.90;;;;;;4938110;29;20609;-55
2023/12/27 13:01:23;;;;;;;17.03;8.07;;;7.50;99.90;;;;;;4951646;28;20237;-54
2023/12/27 13:03:49;;;;;;;18.50;8.00;;;7.60;99.90;;;;;;4946628;29;20206;-59
2023/12/27 13:06:20;;;;;;;16.50;7.70;;;7.70;99.90;;;;;;4944391;28;20281;-58
2023/12/27 13:08:54;;;;;;;16.57;7.63;;;7.80;99.90;;;;;;4952083;28;20187;-58
2023/12/27 13:11:22;;;;;;;17.77;8.77;;;8.00;99.90;;;;;;4943443;28;20464;-59
2023/12/27 13:13:48;;;;;;;17.87;7.80;;;8.00;99.90;;;;;;4944238;29;20206;-62
2023/12/27 13:16:13;;;;;;;14.57;6.50;;;8.10;99.90;;;;;;4937294;28;20626;-59
2023/12/27 13:18:39;;;;;;;13.30;6.43;;;8.30;99.90;;;;;;4932742;29;20269;-59
2023/12/27 13:21:07;;;;;;;15.23;5.80;;;8.50;99.90;;;;;;4946677;29;20322;-56
2023/12/27 13:23:34;;;;;;;12.77;5.13;;;8.50;99.90;;;;;;4951306;28;20289;-59
2023/12/27 13:25:59;;;;;;;12.17;5.53;;;8.70;99.90;;;;;;4952047;28;20190;-56
2023/12/27 13:28:25;;;;;;;10.83;4.70;;;8.70;99.90;;;;;;4943102;28;20182;-55
2023/12/27 13:30:53;;;;;;;12.07;5.60;;;8.80;99.90;;;;;;4945002;29;20189;-56
2023/12/27 13:33:24;;;;;;;44.93;15.90;;;8.90;99.90;;;;;;4943337;28;20233;-54
2023/12/27 13:35:50;;;;;;;30.43;12.07;;;9.10;99.90;;;;;;4944911;29;20410;-57
2023/12/27 13:38:16;;;;;;;15.50;6.93;;;9.30;99.90;;;;;;4943784;28;20198;-54
2023/12/27 13:40:42;;;;;;;12.13;6.50;;;9.40;99.90;;;;;;4933002;28;20194;-55
2023/12/27 13:43:08;;;;;;;12.57;6.47;;;9.30;99.90;;;;;;4940113;29;20226;-53
2023/12/27 13:45:34;;;;;;;14.10;5.93;;;9.20;99.90;;;;;;4942157;29;20720;-55
2023/12/27 13:48:01;;;;;;;11.97;6.20;;;9.20;99.90;;;;;;4942571;29;20710;-56
2023/12/27 13:50:27;;;;;;;13.87;6.17;;;9.10;99.90;;;;;;4934809;28;20651;-55
2023/12/27 13:52:52;;;;;;;14.03;6.17;;;9.10;99.90;;;;;;4939711;28;20215;-53
2023/12/27 13:55:20;;;;;;;15.33;6.07;;;9.10;99.90;;;;;;4948055;29;20269;-55
2023/12/27 13:57:50;;;;;;;11.23;5.93;;;9.20;99.90;;;;;;4934725;29;20194;-54
2023/12/27 14:00:17;;;;;;;8.43;4.37;;;9.20;99.90;;;;;;4936381;28;20324;-53
2023/12/27 14:02:43;;;;;;;10.10;4.80;;;9.10;99.90;;;;;;4939496;29;20254;-53
2023/12/27 14:05:09;;;;;;;11.60;5.87;;;8.90;99.90;;;;;;4932416;29;20295;-53
2023/12/27 14:07:35;;;;;;;10.70;5.40;;;8.80;99.90;;;;;;4940116;29;20225;-53
2023/12/27 14:10:01;;;;;;;10.83;5.50;;;8.80;99.90;;;;;;4945626;28;20186;-55
2023/12/27 14:12:28;;;;;;;9.90;5.60;;;8.70;99.90;;;;;;4943223;28;20202;-54
2023/12/27 14:14:56;;;;;;;10.93;5.73;;;8.80;99.90;;;;;;4947230;28;20196;-52
2023/12/27 14:17:22;;;;;;;12.77;5.80;;;8.80;99.90;;;;;;4948085;28;20217;-54
2023/12/27 14:19:48;;;;;;;16.10;6.30;;;8.80;99.90;;;;;;4939418;29;20179;-59
2023/12/27 14:22:14;;;;;;;12.40;6.37;;;8.80;99.90;;;;;;4939628;28;20286;-55
2023/12/27 14:24:39;;;;;;;12.10;6.07;;;8.70;99.90;;;;;;4938477;29;20206;-56
2023/12/27 14:27:05;;;;;;;10.93;5.10;;;8.70;99.90;;;;;;4947062;28;20650;-54
2023/12/27 14:29:31;;;;;;;10.77;5.83;;;8.60;99.90;;;;;;4940611;28;20655;-54
2023/12/27 14:31:56;;;;;;;11.43;6.20;;;8.60;99.90;;;;;;4943413;29;20188;-58
2023/12/27 14:34:22;;;;;;;11.53;6.13;;;8.50;99.90;;;;;;4935783;29;20221;-58
2023/12/27 14:36:48;;;;;;;13.70;5.73;;;8.50;99.90;;;;;;4943847;28;20186;-57
2023/12/27 14:39:13;;;;;;;11.07;5.57;;;8.50;99.90;;;;;;4943829;28;20183;-52
2023/12/27 14:41:45;;;;;;;12.33;6.20;;;8.50;99.90;;;;;;4941628;29;20199;-54
2023/12/27 14:44:11;;;;;;;9.50;5.73;;;8.40;99.90;;;;;;4950468;29;20202;-55
2023/12/27 14:46:40;;;;;;;12.17;6.10;;;8.40;99.90;;;;;;4954913;28;20186;-55
2023/12/27 14:49:07;;;;;;;11.37;6.00;;;8.30;99.90;;;;;;4954875;28;20261;-55
2023/12/27 14:51:33;;;;;;;16.03;5.83;;;8.30;99.90;;;;;;4952702;28;20190;-53
2023/12/27 14:53:59;;;;;;;10.77;5.33;;;8.20;99.90;;;;;;4940357;29;20790;-51
2023/12/27 14:56:24;;;;;;;12.20;6.20;;;8.20;99.90;;;;;;4946220;28;20277;-57
2023/12/27 14:58:51;;;;;;;12.50;6.00;;;8.20;99.90;;;;;;4956391;28;20198;-55
2023/12/27 15:01:17;;;;;;;12.60;5.53;;;8.10;99.90;;;;;;4954519;28;20214;-54
2023/12/27 15:03:42;;;;;;;11.40;6.30;;;8.00;99.90;;;;;;4948575;28;20233;-53
2023/12/27 15:06:08;;;;;;;11.37;6.23;;;7.90;99.90;;;;;;4952568;28;20189;-53
2023/12/27 15:08:34;;;;;;;10.97;6.50;;;7.90;99.90;;;;;;4954331;28;20191;-58
2023/12/27 15:10:59;;;;;;;11.47;5.57;;;7.70;99.90;;;;;;4959592;28;20186;-56
2023/12/27 15:13:25;;;;;;;8.17;5.20;;;7.70;99.90;;;;;;4963443;28;21353;-52
2023/12/27 15:15:50;;;;;;;10.23;5.17;;;7.70;99.90;;;;;;4965263;28;20672;-56
2023/12/27 15:18:17;;;;;;;9.57;5.40;;;7.60;99.90;;;;;;4958094;28;20197;-55
2023/12/27 15:20:43;;;;;;;10.40;4.97;;;7.50;99.90;;;;;;4951598;28;20191;-57
2023/12/27 15:23:09;;;;;;;9.83;4.70;;;7.40;99.90;;;;;;4941147;29;20637;-53
2023/12/27 15:25:34;;;;;;;5.73;3.60;;;7.30;99.90;;;;;;4956281;28;20214;-54
2023/12/27 15:28:04;;;;;;;8.37;3.07;;;7.30;99.90;;;;;;4940764;29;20218;-56
2023/12/27 15:30:29;;;;;;;8.83;3.47;;;7.20;99.90;;;;;;4946262;28;20178;-59
2023/12/27 15:32:55;;;;;;;32.57;15.53;;;7.20;99.90;;;;;;4946398;28;20218;-54
2023/12/27 15:35:20;;;;;;;17.20;5.97;;;7.10;99.90;;;;;;4943186;29;20198;-53
2023/12/27 15:37:46;;;;;;;38.00;17.73;;;7.00;99.90;;;;;;4938013;28;20247;-55
2023/12/27 15:40:12;;;;;;;20.47;9.07;;;7.00;99.90;;;;;;4948311;28;20674;-55
2023/12/27 15:42:38;;;;;;;17.33;7.53;;;7.10;99.90;;;;;;4955669;28;20217;-54
2023/12/27 15:45:04;;;;;;;22.43;9.53;;;7.10;99.90;;;;;;4956080;28;20197;-55
2023/12/27 15:47:30;;;;;;;14.50;8.37;;;7.10;99.90;;;;;;4948099;28;20190;-57
2023/12/27 15:49:55;;;;;;;19.00;9.70;;;7.00;99.90;;;;;;4956308;28;20183;-56
2023/12/27 15:52:21;;;;;;;15.90;8.23;;;7.00;99.90;;;;;;4958383;28;20220;-53
2023/12/27 15:54:47;;;;;;;15.07;8.07;;;7.10;99.90;;;;;;4963262;28;20192;-53
2023/12/27 15:57:13;;;;;;;18.33;7.73;;;7.00;99.90;;;;;;4963038;28;20201;-56
2023/12/27 15:59:39;;;;;;;13.67;6.93;;;7.00;99.90;;;;;;4959969;28;20190;-55
2023/12/27 16:02:04;;;;;;;12.40;6.93;;;7.00;99.90;;;;;;4958971;28;20699;-55
2023/12/27 16:04:31;;;;;;;15.50;6.73;;;6.90;99.90;;;;;;4960264;28;20178;-56
2023/12/27 16:06:57;;;;;;;16.30;6.60;;;6.80;99.90;;;;;;4960097;28;20182;-56
2023/12/27 16:09:23;;;;;;;20.97;6.97;;;6.90;99.90;;;;;;4956331;28;20315;-57
2023/12/27 16:11:49;;;;;;;12.87;6.40;;;6.80;99.90;;;;;;4944073;28;20227;-56
2023/12/27 16:14:15;;;;;;;14.00;6.83;;;6.70;99.90;;;;;;4955003;28;20266;-54
2023/12/27 16:16:41;;;;;;;12.00;6.40;;;6.70;99.90;;;;;;4952377;28;20190;-54
2023/12/27 16:19:07;;;;;;;13.00;6.47;;;6.60;99.90;;;;;;4953499;28;20213;-56
2023/12/27 16:21:33;;;;;;;20.83;7.10;;;6.50;99.90;;;;;;4944817;28;20221;-54
2023/12/27 16:23:59;;;;;;;15.37;6.80;;;6.50;99.90;;;;;;4949426;29;20288;-52
2023/12/27 16:26:25;;;;;;;15.77;5.63;;;6.50;99.90;;;;;;4940314;28;20185;-50
2023/12/27 16:28:52;;;;;;;12.93;6.57;;;6.40;99.90;;;;;;4934288;29;20187;-52
2023/12/27 16:31:18;;;;;;;17.07;7.50;;;6.30;99.90;;;;;;4942870;28;20186;-54
2023/12/27 16:33:44;;;;;;;14.80;7.50;;;6.30;99.90;;;;;;4941443;28;20777;-52
2023/12/27 16:36:10;;;;;;;17.17;7.80;;;6.30;99.90;;;;;;4950400;28;20269;-56
2023/12/27 16:38:36;;;;;;;18.03;7.30;;;6.40;99.90;;;;;;4945317;29;20209;-55
2023/12/27 16:41:03;;;;;;;18.97;8.10;;;6.40;99.90;;;;;;4945950;28;20319;-52
2023/12/27 16:43:36;;;;;;;14.97;7.60;;;6.50;99.90;;;;;;4942504;28;20714;-55
2023/12/27 16:46:03;;;;;;;19.33;7.10;;;6.60;99.90;;;;;;4948160;29;20658;-54
2023/12/27 16:48:29;;;;;;;20.90;7.00;;;6.60;99.90;;;;;;4951025;28;20187;-51
2023/12/27 16:50:55;;;;;;;16.47;6.67;;;6.60;99.90;;;;;;4948080;28;20225;-52
2023/12/27 16:53:20;;;;;;;13.80;5.80;;;6.70;99.90;;;;;;4943628;28;20221;-57
2023/12/27 16:55:47;;;;;;;15.80;7.00;;;6.70;99.90;;;;;;4948357;28;20195;-55
2023/12/27 16:58:17;;;;;;;12.67;6.87;;;6.80;99.90;;;;;;4948047;28;20186;-51
2023/12/27 17:00:43;;;;;;;12.67;6.17;;;6.70;99.90;;;;;;4939504;28;20225;-51
2023/12/27 17:03:10;;;;;;;15.10;6.20;;;6.80;99.90;;;;;;4946435;29;20242;-52
2023/12/27 17:05:36;;;;;;;13.67;6.27;;;6.80;99.90;;;;;;4952825;28;20729;-51
2023/12/27 17:08:07;;;;;;;14.40;6.27;;;6.80;99.90;;;;;;4952906;28;20186;-52
2023/12/27 17:10:33;;;;;;;12.37;5.93;;;6.80;99.90;;;;;;4950113;28;20198;-54
2023/12/27 17:12:59;;;;;;;12.07;5.93;;;6.80;99.90;;;;;;4947053;28;20215;-53
2023/12/27 17:15:27;;;;;;;18.53;7.57;;;6.80;99.90;;;;;;4936870;29;20286;-54
2023/12/27 17:17:53;;;;;;;15.33;7.37;;;6.80;99.90;;;;;;4936990;29;20190;-53
2023/12/27 17:20:19;;;;;;;20.97;8.40;;;6.80;99.90;;;;;;4939929;29;20179;-56
2023/12/27 17:22:44;;;;;;;17.67;7.20;;;6.70;99.90;;;;;;4935478;29;20220;-52
2023/12/27 17:25:10;;;;;;;13.13;6.07;;;6.70;99.90;;;;;;4945334;28;20195;-52
2023/12/27 17:27:37;;;;;;;15.27;5.53;;;6.70;99.90;;;;;;4949971;28;20186;-53
2023/12/27 17:30:03;;;;;;;10.13;5.50;;;6.60;99.90;;;;;;4945470;28;20643;-51
2023/12/27 17:32:29;;;;;;;14.50;5.50;;;6.60;99.90;;;;;;4943954;28;20214;-53
2023/12/27 17:34:55;;;;;;;13.33;6.00;;;6.60;99.90;;;;;;4942025;29;20242;-54
2023/12/27 17:37:20;;;;;;;15.37;5.27;;;6.50;99.90;;;;;;4950129;28;20657;-55
2023/12/27 17:39:46;;;;;;;22.23;5.70;;;6.50;99.90;;;;;;4946488;28;20249;-53
2023/12/27 17:42:12;;;;;;;13.97;5.77;;;6.40;99.90;;;;;;4945916;28;20297;-50
2023/12/27 17:44:37;;;;;;;15.90;5.87;;;6.40;99.90;;;;;;4942454;28;20183;-52
2023/12/27 17:47:03;;;;;;;13.20;5.20;;;6.40;99.90;;;;;;4943277;29;20266;-56
2023/12/27 17:49:29;;;;;;;10.60;4.97;;;6.40;99.90;;;;;;4950958;29;20175;-50
2023/12/27 17:51:55;;;;;;;13.90;5.40;;;6.40;99.90;;;;;;4934875;29;20230;-54
2023/12/27 17:54:20;;;;;;;12.73;4.63;;;6.40;99.90;;;;;;4940825;29;20552;-52
2023/12/27 17:56:50;;;;;;;10.97;4.80;;;6.40;99.90;;;;;;4950433;29;20182;-51
2023/12/27 17:59:17;;;;;;;13.40;5.73;;;6.40;99.90;;;;;;4950481;28;20261;-52
2023/12/27 18:01:43;;;;;;;17.93;5.17;;;6.40;99.90;;;;;;4943028;28;20206;-51
2023/12/27 18:04:08;;;;;;;10.97;5.50;;;6.30;99.90;;;;;;4946463;28;20218;-50
2023/12/27 18:06:35;;;;;;;10.63;4.93;;;6.30;99.90;;;;;;4943916;28;20183;-53
2023/12/27 18:09:01;;;;;;;10.90;5.23;;;6.30;99.90;;;;;;4942772;29;20185;-54
2023/12/27 18:11:27;;;;;;;10.67;4.97;;;6.30;99.90;;;;;;4938288;28;20187;-52
2023/12/27 18:13:52;;;;;;;12.90;5.20;;;6.10;99.90;;;;;;4940282;28;20218;-52
2023/12/27 18:16:18;;;;;;;9.10;4.60;;;6.10;99.90;;;;;;4941232;28;20530;-53
2023/12/27 18:18:44;;;;;;;14.57;5.33;;;6.10;99.90;;;;;;4938523;28;20215;-54
2023/12/27 18:21:10;;;;;;;11.00;5.43;;;6.10;99.90;;;;;;4940827;29;20187;-52
2023/12/27 18:23:39;;;;;;;12.30;5.70;;;6.00;99.90;;;;;;4941591;29;20682;-55
2023/12/27 18:26:04;;;;;;;16.90;7.30;;;6.00;99.90;;;;;;4941084;28;20195;-51
2023/12/27 18:28:30;;;;;;;19.67;7.27;;;5.90;99.90;;;;;;4941088;29;20202;-66
2023/12/27 18:30:58;;;;;;;32.30;11.23;;;5.90;99.90;;;;;;4947376;28;20183;-51
2023/12/27 18:33:24;;;;;;;14.47;5.97;;;5.90;99.90;;;;;;4938464;29;20254;-55
2023/12/27 18:35:52;;;;;;;12.07;5.90;;;5.70;99.90;;;;;;4938521;29;20604;-50
2023/12/27 18:38:18;;;;;;;14.33;5.23;;;5.60;99.90;;;;;;4943931;28;20273;-54
2023/12/27 18:40:44;;;;;;;15.97;6.10;;;5.60;99.90;;;;;;4937006;29;20659;-53
2023/12/27 18:43:09;;;;;;;15.83;6.70;;;5.50;99.90;;;;;;4940266;29;20230;-54
2023/12/27 18:45:35;;;;;;;12.73;6.33;;;5.50;99.90;;;;;;4943850;28;20183;-53
2023/12/27 18:48:01;;;;;;;14.67;5.50;;;5.40;99.90;;;;;;4944891;28;20194;-51
2023/12/27 18:50:27;;;;;;;13.57;5.97;;;5.30;99.90;;;;;;4934036;29;20183;-51
2023/12/27 18:52:53;;;;;;;16.17;5.90;;;5.30;99.90;;;;;;4945775;28;20257;-55
2023/12/27 18:55:19;;;;;;;14.77;6.20;;;5.30;99.90;;;;;;4942553;28;20199;-55
2023/12/27 18:57:44;;;;;;;12.47;5.73;;;5.20;99.90;;;;;;4942018;28;20612;-54
2023/12/27 19:00:12;;;;;;;12.63;6.43;;;5.10;99.90;;;;;;4939039;28;20190;-54
2023/12/27 19:02:38;;;;;;;27.63;9.03;;;5.10;99.90;;;;;;4934737;28;20230;-51
2023/12/27 19:05:04;;;;;;;14.10;5.73;;;5.10;99.90;;;;;;4944060;28;20183;-53
2023/12/27 19:07:30;;;;;;;14.40;6.37;;;5.00;99.90;;;;;;4940359;28;20186;-55
2023/12/27 19:09:55;;;;;;;15.87;6.30;;;5.00;99.90;;;;;;4954588;28;20537;-55
2023/12/27 19:12:22;;;;;;;11.43;6.03;;;5.00;99.90;;;;;;4945735;28;20207;-54
2023/12/27 19:14:47;;;;;;;15.37;5.83;;;4.90;99.90;;;;;;4945052;28;20183;-54